sensor_id;sensor_type;location;lat;lon;timestamp;pressure;altitude;pressure_sealevel;temperature;humidity
36692;BME280;22678;52.052;4.242;2023-01-23T00:00:33;103681.06;;;2.59;92.20
36692;BME280;22678;52.052;4.242;2023-01-23T00:02:58;103661.44;;;2.51;91.92
36692;BME280;22678;52.052;4.242;2023-01-23T00:05:24;103680.25;;;2.60;91.98
36692;BME280;22678;52.052;4.242;2023-01-23T00:07:49;103669.44;;;2.54;91.94
36692;BME280;22678;52.052;4.242;2023-01-23T00:10:15;103665.19;;;2.43;92.11
36692;BME280;22678;52.052;4.242;2023-01-23T00:12:41;103682.63;;;2.57;92.01
36692;BME280;22678;52.052;4.242;2023-01-23T00:15:08;103674.41;;;2.51;92.20
36692;BME280;22678;52.052;4.242;2023-01-23T00:17:33;103667.88;;;2.56;91.84
36692;BME280;22678;52.052;4.242;2023-01-23T00:19:59;103666.28;;;2.58;92.10
36692;BME280;22678;52.052;4.242;2023-01-23T00:22:25;103667.50;;;2.63;92.02
36692;BME280;22678;52.052;4.242;2023-01-23T00:24:50;103661.06;;;2.58;91.87
36692;BME280;22678;52.052;4.242;2023-01-23T00:27:15;103653.06;;;2.55;92.31
36692;BME280;22678;52.052;4.242;2023-01-23T00:29:41;103654.28;;;2.60;91.91
36692;BME280;22678;52.052;4.242;2023-01-23T00:32:06;103640.88;;;2.54;91.97
36692;BME280;22678;52.052;4.242;2023-01-23T00:34:31;103652.38;;;2.58;92.08
36692;BME280;22678;52.052;4.242;2023-01-23T00:36:57;103652.28;;;2.56;92.46
36692;BME280;22678;52.052;4.242;2023-01-23T00:39:22;103648.75;;;2.56;92.02
36692;BME280;22678;52.052;4.242;2023-01-23T00:41:48;103647.28;;;2.59;92.14
36692;BME280;22678;52.052;4.242;2023-01-23T00:44:14;103644.69;;;2.59;92.09
36692;BME280;22678;52.052;4.242;2023-01-23T00:46:40;103621.56;;;2.51;92.18
36692;BME280;22678;52.052;4.242;2023-01-23T00:49:06;103657.44;;;2.68;92.31
36692;BME280;22678;52.052;4.242;2023-01-23T00:51:32;103648.50;;;2.65;92.08
36692;BME280;22678;52.052;4.242;2023-01-23T00:53:57;103635.09;;;2.58;92.28
36692;BME280;22678;52.052;4.242;2023-01-23T00:56:23;103657.22;;;2.65;91.86
36692;BME280;22678;52.052;4.242;2023-01-23T00:58:48;103658.31;;;2.69;91.88
36692;BME280;22678;52.052;4.242;2023-01-23T01:01:15;103668.72;;;2.69;91.94
36692;BME280;22678;52.052;4.242;2023-01-23T01:03:41;103644.81;;;2.61;92.04
36692;BME280;22678;52.052;4.242;2023-01-23T01:06:06;103643.09;;;2.61;91.86
36692;BME280;22678;52.052;4.242;2023-01-23T01:08:32;103649.44;;;2.65;92.03
36692;BME280;22678;52.052;4.242;2023-01-23T01:10:57;103622.69;;;2.54;91.96
36692;BME280;22678;52.052;4.242;2023-01-23T01:13:23;103624.50;;;2.55;92.15
36692;BME280;22678;52.052;4.242;2023-01-23T01:15:52;103644.34;;;2.67;92.27
36692;BME280;22678;52.052;4.242;2023-01-23T01:18:18;103636.63;;;2.68;92.13
36692;BME280;22678;52.052;4.242;2023-01-23T01:20:44;103649.75;;;2.70;92.13
36692;BME280;22678;52.052;4.242;2023-01-23T01:23:10;103647.94;;;2.69;92.40
36692;BME280;22678;52.052;4.242;2023-01-23T01:25:36;103643.88;;;2.60;91.80
36692;BME280;22678;52.052;4.242;2023-01-23T01:28:02;103654.94;;;2.70;92.20
36692;BME280;22678;52.052;4.242;2023-01-23T01:30:28;103649.53;;;2.67;92.16
36692;BME280;22678;52.052;4.242;2023-01-23T01:32:55;103658.31;;;2.69;91.86
36692;BME280;22678;52.052;4.242;2023-01-23T01:35:21;103665.31;;;2.70;91.72
36692;BME280;22678;52.052;4.242;2023-01-23T01:37:48;103645.28;;;2.55;91.91
36692;BME280;22678;52.052;4.242;2023-01-23T01:40:23;103668.59;;;2.67;91.71
36692;BME280;22678;52.052;4.242;2023-01-23T01:42:53;103666.78;;;2.66;92.10
36692;BME280;22678;52.052;4.242;2023-01-23T01:45:56;103667.63;;;2.65;91.65
36692;BME280;22678;52.052;4.242;2023-01-23T01:54:13;103683.88;;;2.62;91.87
36692;BME280;22678;52.052;4.242;2023-01-23T01:59:19;103643.28;;;2.39;91.68
36692;BME280;22678;52.052;4.242;2023-01-23T02:01:48;103679.25;;;2.58;91.75
36692;BME280;22678;52.052;4.242;2023-01-23T02:04:16;103676.44;;;2.55;91.73
36692;BME280;22678;52.052;4.242;2023-01-23T02:06:41;103672.84;;;2.53;91.72
36692;BME280;22678;52.052;4.242;2023-01-23T02:09:13;103662.31;;;2.52;91.82
36692;BME280;22678;52.052;4.242;2023-01-23T02:11:41;103685.69;;;2.63;91.75
36692;BME280;22678;52.052;4.242;2023-01-23T02:14:07;103683.66;;;2.59;91.96
36692;BME280;22678;52.052;4.242;2023-01-23T02:16:36;103680.50;;;2.63;91.60
36692;BME280;22678;52.052;4.242;2023-01-23T02:19:18;103664.03;;;2.51;91.81
36692;BME280;22678;52.052;4.242;2023-01-23T02:21:53;103650.50;;;2.43;91.72
36692;BME280;22678;52.052;4.242;2023-01-23T02:24:35;103669.22;;;2.51;91.79
36692;BME280;22678;52.052;4.242;2023-01-23T02:27:03;103678.16;;;2.55;91.78
36692;BME280;22678;52.052;4.242;2023-01-23T02:29:44;103696.75;;;2.61;91.72
36692;BME280;22678;52.052;4.242;2023-01-23T02:32:12;103672.84;;;2.53;91.54
36692;BME280;22678;52.052;4.242;2023-01-23T02:34:37;103697.66;;;2.61;91.39
36692;BME280;22678;52.052;4.242;2023-01-23T02:37:04;103655.59;;;2.42;91.73
36692;BME280;22678;52.052;4.242;2023-01-23T02:39:31;103657.63;;;2.46;91.85
36692;BME280;22678;52.052;4.242;2023-01-23T02:41:57;103671.03;;;2.52;91.68
36692;BME280;22678;52.052;4.242;2023-01-23T02:44:26;103685.44;;;2.60;91.93
36692;BME280;22678;52.052;4.242;2023-01-23T02:46:53;103688.03;;;2.60;91.47
36692;BME280;22678;52.052;4.242;2023-01-23T02:49:19;103681.84;;;2.58;91.76
36692;BME280;22678;52.052;4.242;2023-01-23T02:51:46;103681.84;;;2.58;91.33
36692;BME280;22678;52.052;4.242;2023-01-23T02:54:11;103654.81;;;2.43;91.44
36692;BME280;22678;52.052;4.242;2023-01-23T02:56:36;103656.03;;;2.48;91.67
36692;BME280;22678;52.052;4.242;2023-01-23T02:59:02;103686.28;;;2.59;91.46
36692;BME280;22678;52.052;4.242;2023-01-23T03:01:47;103661.44;;;2.51;91.44
36692;BME280;22678;52.052;4.242;2023-01-23T03:04:12;103690.91;;;2.63;91.69
36692;BME280;22678;52.052;4.242;2023-01-23T03:06:37;103668.09;;;2.59;91.44
36692;BME280;22678;52.052;4.242;2023-01-23T03:09:06;103688.28;;;2.63;91.61
36692;BME280;22678;52.052;4.242;2023-01-23T03:11:32;103651.63;;;2.47;91.43
36692;BME280;22678;52.052;4.242;2023-01-23T03:13:58;103667.66;;;2.53;91.45
36692;BME280;22678;52.052;4.242;2023-01-23T03:16:23;103671.03;;;2.52;91.56
36692;BME280;22678;52.052;4.242;2023-01-23T03:18:49;103681.84;;;2.58;91.22
36692;BME280;22678;52.052;4.242;2023-01-23T03:21:15;103679.84;;;2.54;91.43
36692;BME280;22678;52.052;4.242;2023-01-23T03:23:40;103680.75;;;2.55;91.46
36692;BME280;22678;52.052;4.242;2023-01-23T03:26:08;103686.84;;;2.55;91.45
36692;BME280;22678;52.052;4.242;2023-01-23T03:28:34;103658.97;;;2.41;91.51
36692;BME280;22678;52.052;4.242;2023-01-23T03:31:18;103695.94;;;2.62;91.47
36692;BME280;22678;52.052;4.242;2023-01-23T03:33:43;103696.56;;;2.58;91.56
36692;BME280;22678;52.052;4.242;2023-01-23T03:36:09;103702.84;;;2.61;91.96
36692;BME280;22678;52.052;4.242;2023-01-23T03:38:35;103684.13;;;2.54;91.87
36692;BME280;22678;52.052;4.242;2023-01-23T03:41:00;103693.63;;;2.53;91.60
36692;BME280;22678;52.052;4.242;2023-01-23T03:43:44;103699.03;;;2.56;91.73
36692;BME280;22678;52.052;4.242;2023-01-23T03:46:09;103685.59;;;2.50;91.67
36692;BME280;22678;52.052;4.242;2023-01-23T03:48:35;103710.75;;;2.63;91.53
36692;BME280;22678;52.052;4.242;2023-01-23T03:51:00;103657.78;;;2.36;91.59
36692;BME280;22678;52.052;4.242;2023-01-23T03:53:26;103708.06;;;2.61;91.76
36692;BME280;22678;52.052;4.242;2023-01-23T03:55:51;103689.22;;;2.52;91.30
36692;BME280;22678;52.052;4.242;2023-01-23T03:58:16;103659.75;;;2.40;91.92
36692;BME280;22678;52.052;4.242;2023-01-23T04:00:42;103685.69;;;2.52;91.59
36692;BME280;22678;52.052;4.242;2023-01-23T04:03:07;103699.56;;;2.64;91.58
36692;BME280;22678;52.052;4.242;2023-01-23T04:05:33;103675.81;;;2.46;91.77
36692;BME280;22678;52.052;4.242;2023-01-23T04:07:58;103677.81;;;2.50;91.72
36692;BME280;22678;52.052;4.242;2023-01-23T04:10:24;103702.28;;;2.66;92.11
36692;BME280;22678;52.052;4.242;2023-01-23T04:12:49;103693.25;;;2.60;91.67
36692;BME280;22678;52.052;4.242;2023-01-23T04:15:15;103704.88;;;2.66;91.74
36692;BME280;22678;52.052;4.242;2023-01-23T04:17:40;103702.28;;;2.66;91.74
36692;BME280;22678;52.052;4.242;2023-01-23T04:20:06;103690.00;;;2.51;92.08
36692;BME280;22678;52.052;4.242;2023-01-23T04:22:32;103687.50;;;2.53;92.19
36692;BME280;22678;52.052;4.242;2023-01-23T04:24:57;103697.22;;;2.55;91.71
36692;BME280;22678;52.052;4.242;2023-01-23T04:27:22;103710.66;;;2.61;91.99
36692;BME280;22678;52.052;4.242;2023-01-23T04:29:47;103729.16;;;2.66;92.18
36692;BME280;22678;52.052;4.242;2023-01-23T04:32:13;103712.13;;;2.58;92.07
36692;BME280;22678;52.052;4.242;2023-01-23T04:34:38;103727.28;;;2.63;91.96
36692;BME280;22678;52.052;4.242;2023-01-23T04:37:04;103708.41;;;2.54;91.97
36692;BME280;22678;52.052;4.242;2023-01-23T04:39:30;103722.06;;;2.63;92.34
36692;BME280;22678;52.052;4.242;2023-01-23T04:41:55;103709.31;;;2.55;92.20
36692;BME280;22678;52.052;4.242;2023-01-23T04:44:20;103709.66;;;2.59;92.11
36692;BME280;22678;52.052;4.242;2023-01-23T04:46:47;103716.88;;;2.63;92.44
36692;BME280;22678;52.052;4.242;2023-01-23T04:49:14;103717.44;;;2.59;92.22
36692;BME280;22678;52.052;4.242;2023-01-23T04:51:39;103735.50;;;2.70;92.26
36692;BME280;22678;52.052;4.242;2023-01-23T04:54:05;103731.97;;;2.69;92.50
36692;BME280;22678;52.052;4.242;2023-01-23T04:56:30;103713.34;;;2.63;92.25
36692;BME280;22678;52.052;4.242;2023-01-23T04:58:56;103724.53;;;2.62;92.31
36692;BME280;22678;52.052;4.242;2023-01-23T05:01:21;103736.50;;;2.72;92.65
36692;BME280;22678;52.052;4.242;2023-01-23T05:03:51;103715.84;;;2.61;92.55
36692;BME280;22678;52.052;4.242;2023-01-23T05:06:17;103738.09;;;2.70;92.69
36692;BME280;22678;52.052;4.242;2023-01-23T05:08:42;103717.13;;;2.55;92.40
36692;BME280;22678;52.052;4.242;2023-01-23T05:11:08;103717.13;;;2.55;92.63
36692;BME280;22678;52.052;4.242;2023-01-23T05:13:33;103750.97;;;2.68;92.37
36692;BME280;22678;52.052;4.242;2023-01-23T05:15:58;103742.16;;;2.66;92.50
36692;BME280;22678;52.052;4.242;2023-01-23T05:18:24;103746.88;;;2.72;92.72
36692;BME280;22678;52.052;4.242;2023-01-23T05:20:49;103749.47;;;2.72;92.50
36692;BME280;22678;52.052;4.242;2023-01-23T05:23:15;103734.25;;;2.65;92.75
36692;BME280;22678;52.052;4.242;2023-01-23T05:25:40;103734.47;;;2.68;92.98
36692;BME280;22678;52.052;4.242;2023-01-23T05:28:05;103726.56;;;2.66;92.54
36692;BME280;22678;52.052;4.242;2023-01-23T05:30:31;103720.47;;;2.66;92.91
36692;BME280;22678;52.052;4.242;2023-01-23T05:32:56;103716.16;;;2.66;92.90
36692;BME280;22678;52.052;4.242;2023-01-23T05:35:21;103722.50;;;2.70;92.48
36692;BME280;22678;52.052;4.242;2023-01-23T05:37:49;103704.88;;;2.66;92.71
36692;BME280;22678;52.052;4.242;2023-01-23T05:40:14;103711.19;;;2.69;92.78
36692;BME280;22678;52.052;4.242;2023-01-23T05:42:40;103722.28;;;2.67;92.91
36692;BME280;22678;52.052;4.242;2023-01-23T05:45:05;103721.78;;;2.72;92.94
36692;BME280;22678;52.052;4.242;2023-01-23T05:47:31;103705.25;;;2.58;92.99
36692;BME280;22678;52.052;4.242;2023-01-23T05:49:56;103726.09;;;2.72;93.06
36692;BME280;22678;52.052;4.242;2023-01-23T05:52:21;103727.91;;;2.73;92.91
36692;BME280;22678;52.052;4.242;2023-01-23T05:54:47;103693.38;;;2.50;93.06
36692;BME280;22678;52.052;4.242;2023-01-23T05:57:12;103728.59;;;2.70;93.42
36692;BME280;22678;52.052;4.242;2023-01-23T05:59:37;103731.41;;;2.73;93.38
36692;BME280;22678;52.052;4.242;2023-01-23T06:02:03;103715.47;;;2.69;93.43
36692;BME280;22678;52.052;4.242;2023-01-23T06:04:28;103732.88;;;2.70;93.48
36692;BME280;22678;52.052;4.242;2023-01-23T06:06:54;103725.56;;;2.64;93.26
36692;BME280;22678;52.052;4.242;2023-01-23T06:09:19;103722.28;;;2.67;93.30
36692;BME280;22678;52.052;4.242;2023-01-23T06:11:44;103731.19;;;2.70;93.47
36692;BME280;22678;52.052;4.242;2023-01-23T06:14:10;103717.56;;;2.61;93.29
36692;BME280;22678;52.052;4.242;2023-01-23T06:16:35;103731.97;;;2.69;93.61
36692;BME280;22678;52.052;4.242;2023-01-23T06:19:00;103731.06;;;2.69;93.78
36692;BME280;22678;52.052;4.242;2023-01-23T06:21:26;103741.47;;;2.69;93.51
36692;BME280;22678;52.052;4.242;2023-01-23T06:23:51;103733.56;;;2.67;93.80
36692;BME280;22678;52.052;4.242;2023-01-23T06:26:16;103742.25;;;2.68;93.50
36692;BME280;22678;52.052;4.242;2023-01-23T06:28:42;103732.22;;;2.60;93.65
36692;BME280;22678;52.052;4.242;2023-01-23T06:31:07;103732.22;;;2.60;93.70
36692;BME280;22678;52.052;4.242;2023-01-23T06:33:34;103752.06;;;2.72;93.75
36692;BME280;22678;52.052;4.242;2023-01-23T06:36:03;103757.28;;;2.72;93.62
36692;BME280;22678;52.052;4.242;2023-01-23T06:38:29;103729.41;;;2.57;93.62
36692;BME280;22678;52.052;4.242;2023-01-23T06:40:54;103739.44;;;2.65;94.08
36692;BME280;22678;52.052;4.242;2023-01-23T06:43:21;103744.84;;;2.68;93.64
36692;BME280;22678;52.052;4.242;2023-01-23T06:45:46;103757.94;;;2.69;94.05
36692;BME280;22678;52.052;4.242;2023-01-23T06:48:12;103753.25;;;2.63;94.11
36692;BME280;22678;52.052;4.242;2023-01-23T06:50:38;103759.78;;;2.70;94.05
36692;BME280;22678;52.052;4.242;2023-01-23T06:53:04;103757.06;;;2.69;94.25
36692;BME280;22678;52.052;4.242;2023-01-23T06:55:32;103735.41;;;2.56;93.93
36692;BME280;22678;52.052;4.242;2023-01-23T06:57:58;103757.84;;;2.68;94.30
36692;BME280;22678;52.052;4.242;2023-01-23T07:00:23;103749.63;;;2.61;94.29
36692;BME280;22678;52.052;4.242;2023-01-23T07:02:49;103755.03;;;2.65;94.23
36692;BME280;22678;52.052;4.242;2023-01-23T07:05:16;103756.16;;;2.68;94.12
36692;BME280;22678;52.052;4.242;2023-01-23T07:07:41;103763.84;;;2.67;93.97
36692;BME280;22678;52.052;4.242;2023-01-23T07:10:07;103771.06;;;2.71;94.17
36692;BME280;22678;52.052;4.242;2023-01-23T07:12:33;103779.06;;;2.74;94.56
36692;BME280;22678;52.052;4.242;2023-01-23T07:14:58;103769.06;;;2.67;94.44
36692;BME280;22678;52.052;4.242;2023-01-23T07:17:24;103767.47;;;2.69;94.62
36692;BME280;22678;52.052;4.242;2023-01-23T07:19:49;103772.66;;;2.69;94.44
36692;BME280;22678;52.052;4.242;2023-01-23T07:22:19;103787.78;;;2.74;94.23
36692;BME280;22678;52.052;4.242;2023-01-23T07:24:44;103787.56;;;2.71;94.38
36692;BME280;22678;52.052;4.242;2023-01-23T07:27:10;103782.38;;;2.71;94.23
36692;BME280;22678;52.052;4.242;2023-01-23T07:29:35;103791.28;;;2.75;94.48
36692;BME280;22678;52.052;4.242;2023-01-23T07:32:00;103791.06;;;2.72;94.36
36692;BME280;22678;52.052;4.242;2023-01-23T07:34:26;103777.84;;;2.69;94.21
36692;BME280;22678;52.052;4.242;2023-01-23T07:36:51;103781.22;;;2.68;94.37
36692;BME280;22678;52.052;4.242;2023-01-23T07:39:17;103784.66;;;2.67;94.33
36692;BME280;22678;52.052;4.242;2023-01-23T07:41:42;103803.28;;;2.73;94.52
36692;BME280;22678;52.052;4.242;2023-01-23T07:44:13;103798.28;;;2.76;94.62
36692;BME280;22678;52.052;4.242;2023-01-23T07:46:40;103804.28;;;2.75;94.68
36692;BME280;22678;52.052;4.242;2023-01-23T07:49:06;103794.34;;;2.69;94.51
36692;BME280;22678;52.052;4.242;2023-01-23T07:51:31;103794.44;;;2.71;94.63
36692;BME280;22678;52.052;4.242;2023-01-23T07:53:57;103797.03;;;2.71;94.16
36692;BME280;22678;52.052;4.242;2023-01-23T07:56:23;103807.78;;;2.75;94.83
36692;BME280;22678;52.052;4.242;2023-01-23T07:58:49;103796.81;;;2.68;94.42
36692;BME280;22678;52.052;4.242;2023-01-23T08:01:15;103803.84;;;2.69;94.50
36692;BME280;22678;52.052;4.242;2023-01-23T08:03:40;103817.38;;;2.76;94.32
36692;BME280;22678;52.052;4.242;2023-01-23T08:06:06;103808.16;;;2.68;94.34
36692;BME280;22678;52.052;4.242;2023-01-23T08:08:31;103828.69;;;2.77;94.50
36692;BME280;22678;52.052;4.242;2023-01-23T08:10:56;103836.72;;;2.80;94.34
36692;BME280;22678;52.052;4.242;2023-01-23T08:13:22;103825.84;;;2.74;94.61
36692;BME280;22678;52.052;4.242;2023-01-23T08:15:47;103852.41;;;2.82;94.68
36692;BME280;22678;52.052;4.242;2023-01-23T08:18:12;103847.31;;;2.83;94.64
36692;BME280;22678;52.052;4.242;2023-01-23T08:20:38;103851.47;;;2.81;94.52
36692;BME280;22678;52.052;4.242;2023-01-23T08:23:03;103856.91;;;2.84;95.03
36692;BME280;22678;52.052;4.242;2023-01-23T08:25:28;103864.03;;;2.87;94.82
36692;BME280;22678;52.052;4.242;2023-01-23T08:27:54;103855.13;;;2.83;94.73
36692;BME280;22678;52.052;4.242;2023-01-23T08:30:19;103856.91;;;2.84;94.76
36692;BME280;22678;52.052;4.242;2023-01-23T08:32:45;103858.72;;;2.85;94.83
36692;BME280;22678;52.052;4.242;2023-01-23T08:35:11;103867.56;;;2.87;94.80
36692;BME280;22678;52.052;4.242;2023-01-23T08:37:36;103853.50;;;2.85;95.14
36692;BME280;22678;52.052;4.242;2023-01-23T08:40:02;103865.16;;;2.90;94.86
36692;BME280;22678;52.052;4.242;2023-01-23T08:42:28;103863.34;;;2.89;94.79
36692;BME280;22678;52.052;4.242;2023-01-23T08:44:53;103870.00;;;2.97;94.76
36692;BME280;22678;52.052;4.242;2023-01-23T08:47:18;103874.28;;;2.97;94.57
36692;BME280;22678;52.052;4.242;2023-01-23T08:49:44;103858.94;;;2.88;94.79
36692;BME280;22678;52.052;4.242;2023-01-23T08:52:09;103862.78;;;2.93;94.62
36692;BME280;22678;52.052;4.242;2023-01-23T08:54:34;103880.63;;;3.01;94.65
36692;BME280;22678;52.052;4.242;2023-01-23T08:57:00;103867.97;;;2.93;94.75
36692;BME280;22678;52.052;4.242;2023-01-23T08:59:25;103889.44;;;3.03;94.54
36692;BME280;22678;52.052;4.242;2023-01-23T09:01:50;103890.31;;;3.03;94.81
36692;BME280;22678;52.052;4.242;2023-01-23T09:04:16;103868.78;;;2.92;94.81
36692;BME280;22678;52.052;4.242;2023-01-23T09:06:41;103873.72;;;3.01;94.51
36692;BME280;22678;52.052;4.242;2023-01-23T09:09:07;103885.69;;;3.11;94.54
36692;BME280;22678;52.052;4.242;2023-01-23T09:11:32;103888.31;;;3.11;94.71
36692;BME280;22678;52.052;4.242;2023-01-23T09:13:57;103877.69;;;3.08;94.56
36692;BME280;22678;52.052;4.242;2023-01-23T09:16:22;103875.28;;;3.11;94.71
36692;BME280;22678;52.052;4.242;2023-01-23T09:18:48;103865.91;;;3.13;94.77
36692;BME280;22678;52.052;4.242;2023-01-23T09:21:15;103876.84;;;3.21;94.62
36692;BME280;22678;52.052;4.242;2023-01-23T09:23:41;103883.19;;;3.24;94.52
36692;BME280;22678;52.052;4.242;2023-01-23T09:26:09;103869.97;;;3.21;94.55
36692;BME280;22678;52.052;4.242;2023-01-23T09:28:36;103875.69;;;3.29;94.57
36692;BME280;22678;52.052;4.242;2023-01-23T09:31:05;103886.00;;;3.27;94.18
36692;BME280;22678;52.052;4.242;2023-01-23T09:33:34;103875.16;;;3.21;94.20
36692;BME280;22678;52.052;4.242;2023-01-23T09:36:00;103886.00;;;3.27;94.43
36692;BME280;22678;52.052;4.242;2023-01-23T09:38:25;103876.94;;;3.22;94.33
36692;BME280;22678;52.052;4.242;2023-01-23T09:40:54;103898.41;;;3.31;94.27
36692;BME280;22678;52.052;4.242;2023-01-23T09:46:20;103889.81;;;3.32;93.67
36692;BME280;22678;52.052;4.242;2023-01-23T09:48:52;103893.31;;;3.33;93.92
36692;BME280;22678;52.052;4.242;2023-01-23T09:51:42;103893.44;;;3.35;94.15
36692;BME280;22678;52.052;4.242;2023-01-23T09:54:30;103892.25;;;3.43;94.30
36692;BME280;22678;52.052;4.242;2023-01-23T09:57:00;103891.69;;;3.47;93.95
36692;BME280;22678;52.052;4.242;2023-01-23T09:59:35;103888.28;;;3.48;94.05
36692;BME280;22678;52.052;4.242;2023-01-23T10:02:01;103886.91;;;3.53;93.82
36692;BME280;22678;52.052;4.242;2023-01-23T10:04:27;103880.91;;;3.54;93.90
36692;BME280;22678;52.052;4.242;2023-01-23T10:07:06;103888.13;;;3.58;93.84
36692;BME280;22678;52.052;4.242;2023-01-23T10:15:23;103881.59;;;3.77;93.76
36692;BME280;22678;52.052;4.242;2023-01-23T10:18:18;103865.19;;;3.78;93.60
36692;BME280;22678;52.052;4.242;2023-01-23T10:26:23;103854.22;;;3.95;92.95
36692;BME280;22678;52.052;4.242;2023-01-23T10:28:57;103850.81;;;3.96;92.59
36692;BME280;22678;52.052;4.242;2023-01-23T10:31:36;103856.34;;;4.01;92.47
36692;BME280;22678;52.052;4.242;2023-01-23T10:34:10;103867.25;;;4.09;92.48
36692;BME280;22678;52.052;4.242;2023-01-23T10:37:05;103869.28;;;4.13;92.01
36692;BME280;22678;52.052;4.242;2023-01-23T10:39:54;103863.28;;;4.14;91.82
36692;BME280;22678;52.052;4.242;2023-01-23T10:42:24;103868.88;;;4.20;91.62
36692;BME280;22678;52.052;4.242;2023-01-23T10:44:50;103865.34;;;4.19;90.94
36692;BME280;22678;52.052;4.242;2023-01-23T10:47:28;103883.94;;;4.37;91.04
36692;BME280;22678;52.052;4.242;2023-01-23T10:49:55;103884.03;;;4.39;90.67
36692;BME280;22678;52.052;4.242;2023-01-23T10:52:47;103894.38;;;4.51;90.75
36692;BME280;22678;52.052;4.242;2023-01-23T10:57:48;103876.53;;;4.57;89.97
36692;BME280;22678;52.052;4.242;2023-01-23T11:00:25;103878.34;;;4.58;89.80
36692;BME280;22678;52.052;4.242;2023-01-23T11:02:51;103874.91;;;4.59;89.37
36692;BME280;22678;52.052;4.242;2023-01-23T11:05:38;103884.94;;;4.66;88.93
36692;BME280;22678;52.052;4.242;2023-01-23T11:08:49;103881.53;;;4.67;88.64
36692;BME280;22678;52.052;4.242;2023-01-23T11:13:46;103883.53;;;4.71;88.32
36692;BME280;22678;52.052;4.242;2023-01-23T11:16:15;103874.91;;;4.72;87.75
36692;BME280;22678;52.052;4.242;2023-01-23T11:18:54;103881.91;;;4.73;87.60
36692;BME280;22678;52.052;4.242;2023-01-23T11:21:23;103894.75;;;4.84;87.31
36692;BME280;22678;52.052;4.242;2023-01-23T11:24:07;103880.53;;;4.79;86.89
36692;BME280;22678;52.052;4.242;2023-01-23T11:26:34;103877.28;;;4.83;86.78
36692;BME280;22678;52.052;4.242;2023-01-23T11:29:00;103886.72;;;4.94;86.85
36692;BME280;22678;52.052;4.242;2023-01-23T11:31:27;103880.00;;;4.98;86.52
36692;BME280;22678;52.052;4.242;2023-01-23T11:42:19;103875.34;;;5.20;84.80
36692;BME280;22678;52.052;4.242;2023-01-23T11:44:46;103858.56;;;5.30;84.83
36692;BME280;22678;52.052;4.242;2023-01-23T11:55:57;103881.25;;;5.74;82.27
36692;BME280;22678;52.052;4.242;2023-01-23T12:01:21;103872.28;;;5.99;82.05
36692;BME280;22678;52.052;4.242;2023-01-23T12:04:15;103870.25;;;6.08;80.84
36692;BME280;22678;52.052;4.242;2023-01-23T12:06:38;103871.97;;;6.23;81.04
36692;BME280;22678;52.052;4.242;2023-01-23T12:09:13;103857.97;;;6.37;80.28
36692;BME280;22678;52.052;4.242;2023-01-23T12:12:09;103861.66;;;6.41;78.55
36692;BME280;22678;52.052;4.242;2023-01-23T12:17:59;103869.03;;;6.63;78.55
36692;BME280;22678;52.052;4.242;2023-01-23T12:20:40;103869.19;;;6.66;77.92
36692;BME280;22678;52.052;4.242;2023-01-23T12:26:12;103869.31;;;6.84;77.35
36692;BME280;22678;52.052;4.242;2023-01-23T12:31:46;103865.34;;;6.91;75.89
36692;BME280;22678;52.052;4.242;2023-01-23T12:42:28;103884.34;;;6.72;74.94
36692;BME280;22678;52.052;4.242;2023-01-23T12:47:43;103876.22;;;6.52;75.03
36692;BME280;22678;52.052;4.242;2023-01-23T12:50:22;103888.41;;;6.52;74.94
36692;BME280;22678;52.052;4.242;2023-01-23T12:52:54;103883.63;;;6.44;74.78
36692;BME280;22678;52.052;4.242;2023-01-23T12:56:03;103880.75;;;6.40;74.93
36692;BME280;22678;52.052;4.242;2023-01-23T12:58:21;103881.47;;;6.37;75.14
36692;BME280;22678;52.052;4.242;2023-01-23T13:14:38;103869.53;;;6.26;74.62
36692;BME280;22678;52.052;4.242;2023-01-23T13:17:28;103871.38;;;6.28;74.97
36692;BME280;22678;52.052;4.242;2023-01-23T13:20:17;103879.31;;;6.30;74.69
36692;BME280;22678;52.052;4.242;2023-01-23T13:25:45;103848.50;;;6.39;74.76
36692;BME280;22678;52.052;4.242;2023-01-23T13:28:33;103843.78;;;6.48;74.48
36692;BME280;22678;52.052;4.242;2023-01-23T13:31:03;103832.63;;;6.51;73.83
36692;BME280;22678;52.052;4.242;2023-01-23T13:35:55;103809.69;;;6.62;73.12
36692;BME280;22678;52.052;4.242;2023-01-23T13:43:51;103814.63;;;6.89;71.71
36692;BME280;22678;52.052;4.242;2023-01-23T13:52:09;103810.81;;;6.98;71.37
36692;BME280;22678;52.052;4.242;2023-01-23T13:54:54;103795.44;;;7.05;71.43
36692;BME280;22678;52.052;4.242;2023-01-23T13:57:38;103796.84;;;7.14;70.99
36692;BME280;22678;52.052;4.242;2023-01-23T14:00:05;103791.75;;;7.17;70.60
36692;BME280;22678;52.052;4.242;2023-01-23T14:02:38;103811.91;;;7.18;70.60
36692;BME280;22678;52.052;4.242;2023-01-23T14:05:30;103807.78;;;7.07;69.65
36692;BME280;22678;52.052;4.242;2023-01-23T14:08:01;103817.25;;;7.05;70.03
36692;BME280;22678;52.052;4.242;2023-01-23T14:10:30;103808.75;;;6.93;70.05
36692;BME280;22678;52.052;4.242;2023-01-23T14:13:16;103820.78;;;6.89;70.05
36692;BME280;22678;52.052;4.242;2023-01-23T14:15:48;103816.59;;;6.76;70.14
36692;BME280;22678;52.052;4.242;2023-01-23T14:18:53;103827.84;;;6.75;69.66
36692;BME280;22678;52.052;4.242;2023-01-23T14:21:29;103824.81;;;6.68;69.57
36692;BME280;22678;52.052;4.242;2023-01-23T14:23:59;103821.03;;;6.62;69.37
36692;BME280;22678;52.052;4.242;2023-01-23T14:26:33;103825.69;;;6.68;69.61
36692;BME280;22678;52.052;4.242;2023-01-23T14:29:02;103819.03;;;6.73;69.75
36692;BME280;22678;52.052;4.242;2023-01-23T14:31:36;103816.50;;;6.75;69.24
36692;BME280;22678;52.052;4.242;2023-01-23T14:34:12;103821.19;;;6.80;69.29
36692;BME280;22678;52.052;4.242;2023-01-23T14:36:42;103834.66;;;6.88;69.14
36692;BME280;22678;52.052;4.242;2023-01-23T14:39:20;103836.72;;;6.94;68.83
36692;BME280;22678;52.052;4.242;2023-01-23T14:41:48;103839.19;;;6.91;68.54
36692;BME280;22678;52.052;4.242;2023-01-23T14:44:21;103828.72;;;6.91;68.08
36692;BME280;22678;52.052;4.242;2023-01-23T14:46:52;103839.50;;;6.97;67.70